logo
App data

Alien Shooter 2 Conscription

The Great War has begun! The world population capable of functioning is mobilized to serve in the army and the outcome depends on you!
Store | Hub | SteamDB | Site
Developer: Sigma Team Inc. Publisher: Sigma Team Inc.
Genre: Action, Indie, RPG
Languages: English, Russian
Tags: Action (38), Indie (34), RPG (30), Shooter (17), Singleplayer (14), Top-Down Shooter (10), Gore (7), Aliens (6), Isometric (5)
Category: Single-player, Steam Trading Cards
Release date: May 18, 2012
Price: $9.99
Old userscore: 81% Owners: 100,000 .. 200,000
Followers: 919
Peak concurrent players yesterday: 4
YouTube stats: 126 views and 9 comments for top 50 videos uploaded last week, 1 new videos uploaded yesterday.
Playtime total: 03:41 (average) 04:08 (median)

Steam Spy is still in beta, so expect major bugs.

Owners data:

Access restricted.

This feature is only available to users with special access rights. Sorry.

If you want to proceed, you need to register or log in first and then back Steam Spy on Patreon. Look for Indie or Pro pledge.

Don't forget to use the same email as on Steam Spy!

Audience in 2 weeks:

Access restricted.

This feature is only available to users with special access rights. Sorry.

If you want to proceed, you need to register or log in first and then back Steam Spy on Patreon. Look for Indie or Pro pledge.

Don't forget to use the same email as on Steam Spy!

Peak daily concurrent players:

CCU data courtesy of SteamDB. Used with permission.

Hourly concurrent players:

Daily Twitch stats:

Hourly Twitch stats:

Followers over time

Access restricted.

This feature is only available to users with special access rights. Sorry.

If you want to proceed, you need to register or log in first and then back Steam Spy on Patreon. Look for Indie or Pro pledge.

Don't forget to use the same email as on Steam Spy!

Views for top 50 videos on YouTube for this game:

Games similar to this one:

# Game Release date
Price
Score rank
(Userscore / Metascore)
Owners
Players
Playtime (Median)
1 Stick it to The Man! Dec 13, 2013 $7.99N/A (N/A/83%)20,000 .. 50,0000%00:00 (00:00)
2 A.R.E.S.: Extinction Agenda Jan 19, 2011 $4.99N/A (N/A/68%)100,000 .. 200,0000%00:00 (00:00)
3 Hot Tin Roof: The Cat That Wore A Fedora Feb 20, 2015 $14.99N/A (N/A/66%)100,000 .. 200,0000%00:00 (00:00)
4 Warp Mar 21, 2012 $9.99N/A (N/A)20,000 .. 50,0000%00:00 (00:00)
5 Blood Knights Nov 13, 2013 $9.99N/A (N/A)50,000 .. 100,0000%00:00 (00:00)
6 Noitu Love 2: Devolution Apr 23, 2012 $4.99N/A (N/A/80%)50,000 .. 100,0000%00:00 (00:00)
7 Wooden Sen'SeY Dec 5, 2013 $9.99N/A (N/A)20,000 .. 50,0000%00:00 (00:00)
8 Droid Assault Jan 9, 2013 $9.99N/A (N/A)50,000 .. 100,0000%00:00 (00:00)
9 Pixel Boy and the Ever Expanding Dungeon May 30, 2014 $0.99N/A (N/A)20,000 .. 50,0000%00:00 (00:00)
10 Leisure Suit Larry in the Land of the Lounge Lizards: Reloaded Jun 27, 2013 N/AN/A (N/A)50,000 .. 100,0000%00:00 (00:00)
11 Guns n Zombies Oct 30, 2014 $7.99N/A (N/A)100,000 .. 200,0000%00:00 (00:00)
12 Fist Puncher Jun 21, 2013 $9.99N/A (N/A/73%)20,000 .. 50,0000%00:00 (00:00)
13 Painkiller: Black Edition Apr 12, 2004 $9.99N/A (N/A)200,000 .. 500,0000%00:00 (00:00)
14 VelocityUltra Dec 12, 2013 $9.99N/A (N/A)20,000 .. 50,0000%00:00 (00:00)
15 Devil May Cry 4 Dec 22, 2009 $19.99N/A (N/A/78%)200,000 .. 500,0000%00:00 (00:00)
16 Livelock Aug 30, 2016 $9.99N/A (N/A/73%)50,000 .. 100,0000%00:00 (00:00)
17 The First Templar - Steam Special Edition May 12, 2011 $9.99N/A (N/A/57%)100,000 .. 200,0000%00:00 (00:00)
18 Meltdown Jun 5, 2014 $6.99N/A (N/A)100,000 .. 200,0000%00:00 (00:00)
19 Psichodelya Aug 8, 2014 $1.99N/A (N/A)50,000 .. 100,0000%00:00 (00:00)
20 The Dishwasher: Vampire Smile May 12, 2017 $9.99N/A (N/A)50,000 .. 100,0000%00:00 (00:00)
21 Momodora III Jul 1, 2014 $1.99N/A (N/A)50,000 .. 100,0000%00:00 (00:00)
22 RIVE: Wreck, Hack, Die, Retry! Sep 13, 2016 $2.99N/A (N/A)200,000 .. 500,0000%00:00 (00:00)
23 Heavy Fire: Afghanistan Aug 15, 2014 $2.99N/A (N/A)50,000 .. 100,0000%00:00 (00:00)
24 GIGANTIC ARMY Mar 6, 2014 $5.99N/A (N/A)50,000 .. 100,0000%00:00 (00:00)
25 Onikira - Demon Killer Aug 27, 2015 $13.99N/A (N/A)50,000 .. 100,0000%00:00 (00:00)
26 Devil's Dare 悪魔の挑戦 Oct 21, 2014 $12.99N/A (N/A)20,000 .. 50,0000%00:00 (00:00)
27 The Way May 20, 2016 $14.99N/A (N/A/67%)100,000 .. 200,0000%00:00 (00:00)
28 Avoid - Sensory Overload Apr 8, 2014 $4.99N/A (N/A)20,000 .. 50,0000%00:00 (00:00)
29 The Stalin Subway: Red Veil Oct 5, 2006 $2.99N/A (N/A)50,000 .. 100,0000%00:00 (00:00)
30 Collapse Sep 25, 2008 $19.99N/A (N/A)50,000 .. 100,0000%00:00 (00:00)
31 The Stalin Subway Oct 5, 2006 $3.99N/A (N/A)100,000 .. 200,0000%00:00 (00:00)
32 MIND: Path to Thalamus Enhanced Edition Nov 3, 2015 $11.99N/A (N/A/75%)100,000 .. 200,0000%00:00 (00:00)
33 MURI Dec 6, 2013 $4.99N/A (N/A)20,000 .. 50,0000%00:00 (00:00)
34 Beyond Space Remastered Edition Jun 16, 2014 $4.99N/A (N/A)20,000 .. 50,0000%00:00 (00:00)
35 Jet Gunner Aug 4, 2014 $0.99N/A (N/A)100,000 .. 200,0000%00:00 (00:00)
36 Robotex Nov 18, 2014 $4.99N/A (N/A)200,000 .. 500,0000%00:00 (00:00)
37 Obludia Jul 18, 2014 $2.99N/A (N/A)20,000 .. 50,0000%00:00 (00:00)
38 Velocity 2X Aug 19, 2015 $19.99N/A (N/A)50,000 .. 100,0000%00:00 (00:00)
39 Woah Dave! Oct 30, 2014 $4.99N/A (N/A)20,000 .. 50,0000%00:00 (00:00)
40 Flywrench Aug 24, 2015 $6.99N/A (N/A)0 .. 20,0000%00:00 (00:00)
41 Attractio Jan 18, 2016 $19.99N/A (N/A)20,000 .. 50,0000%00:00 (00:00)
42 Death Ray Manta SE Sep 17, 2015 $1.99N/A (N/A)20,000 .. 50,0000%00:00 (00:00)
43 Odallus: The Dark Call Jul 15, 2015 $9.99N/A (N/A/80%)100,000 .. 200,0000%00:00 (00:00)
44 Chronicles of Teddy Apr 2, 2015 $14.99N/A (N/A)20,000 .. 50,0000%00:00 (00:00)
45 Deadlings: Rotten Edition Nov 11, 2014 $3.99N/A (N/A)50,000 .. 100,0000%00:00 (00:00)
46 TEMBO THE BADASS ELEPHANT Jul 21, 2015 $14.99N/A (N/A)20,000 .. 50,0000%00:00 (00:00)
47 Fabula Mortis Oct 27, 2014 $7.99N/A (N/A)20,000 .. 50,0000%00:00 (00:00)
48 David. Mar 14, 2014 $1.99N/A (N/A)50,000 .. 100,0000%00:00 (00:00)
49 Wickland Nov 14, 2014 $0.99N/A (N/A)50,000 .. 100,0000%00:00 (00:00)
50 Zoo Rampage Jul 9, 2014 $3.99N/A (N/A)20,000 .. 50,0000%00:00 (00:00)
51 Guns, Gore & Cannoli Apr 30, 2015 $9.99N/A (N/A/80%)100,000 .. 200,0000%00:00 (00:00)
52 Planet of the Eyes Aug 24, 2015 $9.99N/A (N/A/66%)50,000 .. 100,0000%00:00 (00:00)
53 12 is Better Than 6 Nov 20, 2015 $9.99N/A (N/A/74%)500,000 .. 1,000,0000%00:00 (00:00)
54 Rad Rodgers: World One Dec 1, 2016 $19.99N/A (N/A/72%)0 .. 20,0000%00:00 (00:00)
55 Dinocide Jan 21, 2016 $9.99N/A (N/A/51%)50,000 .. 100,0000%00:00 (00:00)
56 Mighty Switch Force! Hyper Drive Edition Jun 25, 2015 $9.99N/A (N/A/85%)0 .. 20,0000%00:00 (00:00)
57 Prison Run and Gun Mar 16, 2016 $4.99N/A (N/A)20,000 .. 50,0000%00:00 (00:00)
58 Spooky Cats Jun 4, 2015 $1.19N/A (N/A)20,000 .. 50,0000%00:00 (00:00)
59 Mr. Shifty Apr 13, 2017 $14.99N/A (N/A)100,000 .. 200,0005.26%01:54 (00:38)
60 Weapon of Choice Sep 23, 2015 $4.99N/A (N/A)0 .. 20,0000%00:00 (00:00)
61 Unbox: Newbie's Adventure Sep 5, 2016 $19.99N/A (N/A/68%)50,000 .. 100,0000%00:00 (00:00)
62 Vendetta - Curse of Raven's Cry Nov 20, 2015 $29.99N/A (N/A)500,000 .. 1,000,00016.67%07:04 (02:21)
63 Wonder Boy: The Dragon's Trap Jun 8, 2017 $19.99N/A (N/A)50,000 .. 100,0000%00:00 (00:00)
64 Toy Odyssey: The Lost and Found Sep 20, 2016 $14.99N/A (N/A/66%)20,000 .. 50,0000%00:00 (00:00)
65 Battle Bruise Apr 22, 2017 $0.99N/A (N/A)20,000 .. 50,0000%00:00 (00:00)
66 Bleed 2 Feb 8, 2017 $9.99N/A (N/A/83%)20,000 .. 50,0000%00:00 (00:00)
67 Supercharged Robot VULKAISER Jun 4, 2015 $4.99N/A (N/A)20,000 .. 50,0000%00:00 (00:00)
68 Little Big Adventure - Enhanced Edition Oct 14, 1994 $5.99N/A (N/A)0 .. 20,0000%00:00 (00:00)

Tags over time:

Access restricted.

This feature is only available to users with special access rights. Sorry.

If you want to proceed, you need to register or log in first and then back Steam Spy on Patreon. Look for Indie or Pro pledge.

Don't forget to use the same email as on Steam Spy!

Owners of this game also own:

Access restricted.

This feature is only available to users with special access rights. Sorry.

If you want to proceed, you need to register or log in first and then back Steam Spy on Patreon. Look for Indie or Pro pledge.

Don't forget to use the same email as on Steam Spy!

Playtime distribution:

Access restricted.

This feature is only available to users with special access rights. Sorry.

If you want to proceed, you need to register or log in first and then back Steam Spy on Patreon. Look for Indie or Pro pledge.

Don't forget to use the same email as on Steam Spy!

Playtime (2 weeks):

Access restricted.

This feature is only available to users with special access rights. Sorry.

If you want to proceed, you need to register or log in first and then back Steam Spy on Patreon. Look for Indie or Pro pledge.

Don't forget to use the same email as on Steam Spy!

User reviews:

Login required.

Please register or log in to see this information.